Terminal Aerodrome Forecast
Issued by NWS

Home | Current Version | Previous Version | Text Only | Print | Product List | Glossary On
Versions: 1 2 3 4 5 6 7 8 9 10 11 12 13
000
FTUS46 KSTO 212326
TAFSAC
TAF
KSAC 212326Z 2200/2224 21006KT P6SM FEW080 SCT250
     FM220700 17005KT P6SM BKN250
     FM221800 31005KT P6SM BKN250=

USA.gov is the U.S. government's official web portal to all federal, state and local government web resources and services.